Latest Weather Observations for Nambour

IDQ60801

Issued at 10:05 pm EST Saturday 19 April 2014 (issued every 30 minutes, with the page automatically refreshed every 10 minutes)

About weather observations | Map of weather stations | Latest weather observations for QLD | Other Formats
Station Details ID: 040988 Name: NAMBOUR DPI - HILLSIDE Lat: -26.64 Lon: 152.94 Height: 53.24 m
Data from the previous 72 hours. | See also: Recent months at Nambour
Date/Time
EST
Temp
°C
App
Temp
°C
Dew
Point
Rel
Hum
%
Delta-T
°C
Wind Press
QNH
hPa
Press
MSL
hPa
Rain
since 9 am
mm
Dir
 
Spd
km/h
Gust
km/h
Spd
kts
Gust
kts
19/10:00pm 15.9 16.5 11.9 77 2.2 S 0 0 0 0 1016.7 1016.5 0.0
19/09:30pm 16.3 16.8 11.7 74 2.5 SW 0 0 0 0 1016.5 - 0.0
19/09:00pm 16.3 17.0 12.1 76 2.3 CALM 0 0 0 0 1016.4 1016.2 0.0
19/08:30pm 17.0 17.5 11.7 71 2.9 CALM 0 0 0 0 1016.3 - 0.0
19/08:00pm 16.9 17.6 12.2 74 2.6 CALM 0 0 0 0 1016.1 1015.9 0.0
19/07:30pm 18.1 18.7 11.9 67 3.4 CALM 0 2 0 1 1015.8 - 0.0
19/07:00pm 17.6 18.3 12.3 71 2.9 CALM 0 0 0 0 1015.5 1015.3 0.0
19/06:30pm 19.1 19.8 12.1 64 3.9 CALM 0 0 0 0 1015.1 - 0.0
19/06:00pm 20.3 20.9 12.0 59 4.6 CALM 0 0 0 0 1014.7 1014.5 0.0
19/05:30pm 22.2 22.5 11.0 49 6.2 CALM 0 4 0 2 1014.4 - 0.0
19/05:00pm 24.1 23.4 10.0 41 7.8 ENE 4 9 2 5 1014.2 1014.0 0.0
19/04:30pm 25.6 24.2 9.0 35 9.0 ENE 6 7 3 4 1013.8 - 0.0
19/04:00pm 26.4 25.0 7.4 30 10.1 E 4 9 2 5 1013.6 1013.4 0.0
19/03:30pm 27.0 25.7 7.5 29 10.4 E 4 7 2 4 1013.6 - 0.0
19/03:00pm 27.3 25.5 5.6 25 11.2 WNW 4 9 2 5 1013.6 1013.4 0.0
19/02:30pm 27.6 25.4 5.2 24 11.6 W 6 11 3 6 1013.7 - 0.0
19/02:00pm 27.5 25.5 6.3 26 11.1 WSW 6 9 3 5 1013.8 1013.6 0.0
19/01:30pm 27.0 24.9 4.1 23 11.5 SSW 4 11 2 6 1014.0 - 0.0
19/01:00pm 27.2 24.9 4.9 24 11.4 SW 6 13 3 7 1014.2 1014.0 0.0
19/12:30pm 26.9 23.9 4.0 23 11.5 WSW 9 17 5 9 1014.8 - 0.0
19/12:00pm 26.8 24.2 4.0 23 11.4 SW 7 15 4 8 1015.3 1015.1 0.0
19/11:30am 26.8 24.0 5.1 25 11.1 W 9 20 5 11 1015.9 - 0.0
19/11:00am 26.8 24.6 6.2 27 10.7 WSW 7 11 4 6 1016.2 1016.0 0.0
19/10:30am 26.5 25.0 8.5 32 9.8 WSW 6 9 3 5 1016.6 - 0.0
19/10:00am 26.0 24.2 8.0 32 9.6 WSW 7 13 4 7 1016.8 1016.6 0.0
19/09:30am 25.4 24.5 9.3 36 8.8 W 4 9 2 5 1016.9 - 0.0
19/09:00am 24.5 22.9 8.9 37 8.4 WSW 7 15 4 8 1017.1 1016.9 0.2
19/08:30am 23.1 24.3 14.9 60 4.9 NW 2 9 1 5 1017.1 - 0.0
19/08:00am 19.6 21.3 15.3 76 2.5 CALM 0 0 0 0 1017.0 1016.8 0.0
19/07:30am 17.2 19.0 15.5 90 1.0 CALM 0 0 0 0 1016.7 - 0.0
19/07:00am 15.4 16.8 14.3 93 0.6 SW 0 6 0 3 1016.6 1016.4 0.0
19/06:30am 14.1 15.1 13.3 95 0.4 CALM 0 4 0 2 1016.4 - 0.0
19/06:00am 14.2 15.3 13.6 96 0.3 WSW 0 0 0 0 1016.3 1016.1 0.0
19/05:30am 14.8 16.2 14.3 97 0.3 CALM 0 0 0 0 1016.2 - 0.0
19/05:00am 14.8 16.1 14.2 96 0.3 CALM 0 0 0 0 1016.0 1015.8 0.0
19/04:30am 15.4 17.0 14.8 96 0.3 CALM 0 0 0 0 1015.8 - 0.0
19/04:00am 15.4 16.9 14.6 95 0.5 CALM 0 0 0 0 1015.8 1015.6 0.0
19/03:30am 16.0 17.8 15.4 96 0.3 CALM 0 0 0 0 1015.6 - 0.0
19/03:00am 16.2 17.9 15.2 94 0.6 CALM 0 4 0 2 1015.7 1015.5 0.0
19/02:30am 17.4 19.3 16.8 96 0.4 WSW 2 4 1 2 1015.9 - 0.0
19/02:00am 16.5 18.2 15.2 92 0.8 CALM 0 4 0 2 1015.9 1015.7 0.0
19/01:30am 16.9 18.8 15.8 93 0.6 CALM 0 0 0 0 1016.0 - 0.0
19/01:00am 17.2 19.3 16.2 94 0.6 CALM 0 0 0 0 1016.2 1016.0 0.0
19/12:30am 17.9 19.8 16.6 92 0.8 E 2 6 1 3 1016.4 - 0.0
19/12:00am 18.6 20.2 16.9 90 1.0 W 4 7 2 4 1016.4 1016.2 0.0
 
Date/Time
EST
Temp
°C
App
Temp
°C
Dew
Point
Rel
Hum
%
Delta-T
°C
Wind Press
QNH
hPa
Press
MSL
hPa
Rain
since 9 am
mm
Dir
 
Spd
km/h
Gust
km/h
Spd
kts
Gust
kts
18/11:30pm 18.1 20.0 16.8 92 0.8 W 2 6 1 3 1016.5 - 0.0
18/11:00pm 17.6 19.2 15.0 85 1.5 CALM 0 0 0 0 1016.7 1016.5 0.0
18/10:30pm 19.6 21.2 17.0 85 1.6 WNW 4 6 2 3 1016.7 - 0.0
18/10:00pm 17.6 19.5 16.8 95 0.5 W 2 4 1 2 1016.6 1016.4 0.0
18/09:30pm 17.6 19.8 16.5 93 0.7 CALM 0 0 0 0 1016.6 - 0.0
18/09:00pm 17.9 20.1 16.6 92 0.8 CALM 0 0 0 0 1016.5 1016.3 0.0
18/08:30pm 18.3 20.7 17.1 93 0.7 CALM 0 0 0 0 1016.4 - 0.0
18/08:00pm 18.4 20.8 16.9 91 0.9 CALM 0 0 0 0 1016.3 1016.1 0.0
18/07:30pm 18.8 21.2 17.1 90 1.0 CALM 0 0 0 0 1015.9 - 0.0
18/07:00pm 19.2 21.4 16.4 84 1.7 CALM 0 0 0 0 1015.6 1015.4 0.0
18/06:30pm 20.1 21.8 16.3 79 2.3 W 2 4 1 2 1015.2 - 0.0
18/06:00pm 20.9 22.7 16.5 76 2.7 W 2 4 1 2 1014.9 1014.7 0.0
18/05:30pm 22.0 24.1 16.3 70 3.5 CALM 0 0 0 0 1014.7 - 0.0
18/05:00pm 23.2 24.2 16.3 65 4.2 E 6 9 3 5 1014.3 1014.1 0.0
18/04:30pm 24.1 24.8 16.1 61 4.9 ENE 7 13 4 7 1014.1 - 0.0
18/04:00pm 24.7 25.6 16.2 59 5.2 NE 6 9 3 5 1013.8 1013.6 0.0
18/03:30pm 25.0 25.3 15.9 57 5.5 E 9 13 5 7 1013.5 - 0.0
18/03:00pm 25.0 24.6 16.2 58 5.4 E 13 20 7 11 1013.4 1013.2 0.0
18/02:30pm 26.3 26.4 14.4 48 7.1 E 7 15 4 8 1013.5 - 0.0
18/02:00pm 26.9 26.0 9.3 33 9.7 ENE 4 7 2 4 1013.8 1013.6 0.0
18/01:30pm 26.4 26.6 11.7 40 8.4 E 2 6 1 3 1013.9 - 0.0
18/01:00pm 26.7 26.7 12.4 41 8.3 SE 4 13 2 7 1014.0 1013.8 0.0
18/12:30pm 26.8 27.1 14.5 46 7.4 E 6 11 3 6 1014.5 - 0.0
18/12:00pm 25.2 25.3 14.0 49 6.6 W 6 15 3 8 1015.1 1014.9 0.0
18/11:30am 25.6 26.8 15.9 55 5.9 SSE 4 6 2 3 1015.7 - 0.0
18/11:00am 24.9 25.9 16.3 59 5.3 ENE 6 11 3 6 1016.3 1016.1 0.0
18/10:30am 24.3 25.4 16.6 62 4.7 NE 6 13 3 7 1016.8 - 0.0
18/10:00am 23.9 24.8 16.7 64 4.4 E 7 15 4 8 1017.1 1016.9 0.0
18/09:30am 23.1 24.6 16.6 67 4.0 SE 4 9 2 5 1017.2 - 0.0
18/09:00am 22.6 24.0 16.4 68 3.8 SE 4 9 2 5 1017.5 1017.3 0.0
18/08:30am 21.4 22.8 16.4 73 3.0 ESE 4 7 2 4 1017.5 - 0.0
18/08:00am 20.2 22.6 17.0 82 1.9 CALM 0 2 0 1 1017.3 1017.1 0.0
18/07:30am 18.1 20.4 16.8 92 0.8 CALM 0 0 0 0 1017.2 - 0.0
18/07:00am 16.3 17.7 15.5 95 0.5 ESE 2 6 1 3 1016.9 1016.7 0.0
18/06:30am 15.5 17.1 15.0 97 0.3 CALM 0 0 0 0 1016.8 - 0.0
18/06:00am 15.4 17.0 14.8 96 0.3 CALM 0 0 0 0 1016.6 1016.4 0.0
18/05:30am 15.4 17.0 14.8 96 0.3 CALM 0 0 0 0 1016.6 - 0.0
18/05:00am 15.6 17.3 15.1 97 0.3 CALM 0 0 0 0 1016.6 1016.4 0.0
18/04:30am 15.6 17.2 15.0 96 0.3 CALM 0 0 0 0 1016.5 - 0.0
18/04:00am 15.8 17.5 15.2 96 0.3 CALM 0 0 0 0 1016.3 1016.1 0.0
18/03:30am 15.9 17.6 15.1 95 0.5 CALM 0 0 0 0 1016.3 - 0.0
18/03:00am 16.2 18.0 15.6 96 0.4 CALM 0 0 0 0 1016.3 1016.1 0.0
18/02:30am 16.2 18.0 15.6 96 0.4 CALM 0 0 0 0 1016.4 - 0.0
18/02:00am 16.1 17.9 15.5 96 0.3 CALM 0 0 0 0 1016.5 1016.3 0.0
18/01:30am 16.5 18.4 15.7 95 0.5 CALM 0 0 0 0 1016.8 - 0.0
18/01:00am 16.7 18.6 15.7 94 0.6 CALM 0 0 0 0 1017.0 1016.8 0.0
18/12:30am 17.1 19.2 16.3 95 0.5 CALM 0 0 0 0 1017.2 - 0.0
18/12:00am 17.0 19.0 16.0 94 0.6 CALM 0 0 0 0 1017.6 1017.4 0.0
 
Date/Time
EST
Temp
°C
App
Temp
°C
Dew
Point
Rel
Hum
%
Delta-T
°C
Wind Press
QNH
hPa
Press
MSL
hPa
Rain
since 9 am
mm
Dir
 
Spd
km/h
Gust
km/h
Spd
kts
Gust
kts
17/11:30pm 17.0 19.0 16.0 94 0.6 CALM 0 0 0 0 1017.8 - 0.0
17/11:00pm 17.0 19.0 16.0 94 0.6 CALM 0 0 0 0 1017.9 1017.7 0.0
17/10:30pm 16.8 18.7 15.7 93 0.6 CALM 0 0 0 0 1017.9 - 0.0
17/10:00pm 17.0 18.9 15.7 92 0.8 CALM 0 0 0 0 1017.9 1017.7 0.0
17/09:30pm 17.3 19.2 15.8 91 0.9 CALM 0 0 0 0 1017.9 - 0.0
17/09:00pm 17.3 19.2 15.8 91 0.9 CALM 0 0 0 0 1017.7 1017.5 0.0
17/08:30pm 17.7 19.7 16.0 90 1.0 CALM 0 0 0 0 1017.5 - 0.0
17/08:00pm 17.9 19.8 15.7 87 1.3 CALM 0 0 0 0 1017.4 1017.2 0.0
17/07:30pm 18.1 19.7 15.0 82 1.8 CALM 0 0 0 0 1017.0 - 0.0
17/07:00pm 18.7 20.4 15.2 80 2.1 CALM 0 0 0 0 1016.6 1016.4 0.0
17/06:30pm 18.9 20.6 15.2 79 2.2 CALM 0 0 0 0 1016.3 - 0.0
17/06:00pm 19.7 21.4 15.1 75 2.7 CALM 0 0 0 0 1016.0 1015.8 0.0
17/05:30pm 21.4 23.0 15.0 67 3.8 CALM 0 0 0 0 1015.8 - 0.0
17/05:00pm 22.8 23.1 14.6 60 4.8 E 6 7 3 4 1015.6 1015.4 0.0
17/04:30pm 23.3 23.5 14.6 58 5.2 ENE 7 11 4 6 1015.4 - 0.0
17/04:00pm 23.8 23.6 14.8 57 5.4 ENE 9 13 5 7 1015.3 1015.1 0.0
17/03:30pm 23.4 23.7 14.9 59 5.1 E 7 11 4 6 1015.2 - 0.0
17/03:00pm 23.9 23.8 14.9 57 5.4 E 9 13 5 7 1015.0 1014.8 0.0
17/02:30pm 24.8 23.8 14.6 53 6.1 NE 13 19 7 10 1015.0 - 0.0
17/02:00pm 25.5 25.4 14.9 52 6.4 NE 9 15 5 8 1015.1 1014.9 0.0
17/01:30pm 24.9 25.4 15.5 56 5.7 E 7 11 4 6 1015.3 - 0.0
17/01:00pm 25.5 26.0 14.0 49 6.8 SSE 4 7 2 4 1015.5 1015.3 0.0
17/12:30pm 26.1 26.3 13.2 44 7.6 NNE 4 7 2 4 1015.8 - 0.0
17/12:00pm 26.4 27.0 14.2 47 7.3 N 4 7 2 4 1016.4 1016.2 0.0
17/11:30am 25.8 26.8 14.3 49 6.9 NNW 2 7 1 4 1017.0 - 0.0
17/11:00am 25.1 26.3 14.9 53 6.1 NW 2 7 1 4 1017.5 1017.3 0.0
17/10:30am 25.1 25.3 14.3 51 6.4 E 6 11 3 6 1017.9 - 0.0
17/10:00am 24.6 24.8 14.1 52 6.2 NE 6 9 3 5 1018.0 1017.8 0.0
17/09:30am 24.1 24.2 13.9 53 6.0 E 6 7 3 4 1018.2 - 0.0
17/09:00am 23.9 24.5 13.2 51 6.2 ESE 2 7 1 4 1018.4 1018.2 0.0
17/08:30am 22.4 24.4 16.0 67 3.9 CALM 0 0 0 0 1018.3 - 0.0
17/08:00am 20.6 22.5 15.8 74 2.9 CALM 0 0 0 0 1018.2 1018.0 0.0
17/07:30am 18.7 20.7 15.9 84 1.7 CALM 0 0 0 0 1018.0 - 0.0
17/07:00am 16.9 18.7 15.6 92 0.8 CALM 0 0 0 0 1017.6 1017.4 0.0
17/06:30am 15.6 17.2 14.8 95 0.5 CALM 0 0 0 0 1017.4 - 0.0
17/06:00am 15.4 16.9 14.6 95 0.5 CALM 0 0 0 0 1017.1 1016.9 0.0
17/05:30am 15.8 17.4 15.0 95 0.5 CALM 0 0 0 0 1016.9 - 0.0
17/05:00am 16.1 17.9 15.5 96 0.3 CALM 0 0 0 0 1016.9 1016.7 0.0
17/04:30am 16.1 17.9 15.5 96 0.3 CALM 0 2 0 1 1016.6 - 0.0
17/04:00am 16.1 17.9 15.5 96 0.3 CALM 0 0 0 0 1016.5 1016.3 0.0
17/03:30am 15.7 17.4 15.1 96 0.3 CALM 0 0 0 0 1016.3 - 0.0
17/03:00am 15.9 17.6 15.3 96 0.3 CALM 0 0 0 0 1016.2 1016.0 0.0
17/02:30am 15.9 17.6 15.3 96 0.3 CALM 0 0 0 0 1016.2 - 0.0
17/02:00am 16.0 17.7 15.2 95 0.5 CALM 0 0 0 0 1016.2 1016.0 0.0
17/01:30am 16.3 18.2 15.7 96 0.4 CALM 0 0 0 0 1016.5 - 0.0
17/01:00am 16.1 17.8 15.3 95 0.5 CALM 0 0 0 0 1016.6 1016.4 0.0
17/12:30am 16.2 17.9 15.2 94 0.6 CALM 0 0 0 0 1016.7 - 0.0
17/12:00am 16.3 18.0 15.3 94 0.6 CALM 0 0 0 0 1016.8 1016.6 0.0
 
Date/Time
EST
Temp
°C
App
Temp
°C
Dew
Point
Rel
Hum
%
Delta-T
°C
Wind Press
QNH
hPa
Press
MSL
hPa
Rain
since 9 am
mm
Dir
 
Spd
km/h
Gust
km/h
Spd
kts
Gust
kts
16/11:30pm 16.6 18.4 15.6 94 0.6 CALM 0 0 0 0 1016.8 - 0.0
16/11:00pm 16.6 18.4 15.5 93 0.6 CALM 0 0 0 0 1016.9 1016.7 0.0
16/10:30pm 16.7 18.5 15.6 93 0.6 CALM 0 0 0 0 1016.9 - 0.0

Other Formats:

Comma delimited format used in spreadsheet applications
http://www.bom.gov.au/fwo/IDQ60801/IDQ60801.95572.axf

JavaScript Object Notation format (JSON) in row-major order
http://www.bom.gov.au/fwo/IDQ60801/IDQ60801.95572.json